createdAt,value
2018-11-11T05:01:40.373Z,29.80
2018-11-11T05:04:08.463Z,29.73
2018-11-11T05:06:36.633Z,28.77
2018-11-11T05:09:08.218Z,31.07
2018-11-11T05:11:36.404Z,29.63
2018-11-11T05:14:04.597Z,29.00
2018-11-11T05:16:32.786Z,28.97
2018-11-11T05:19:00.930Z,29.67
2018-11-11T05:21:29.083Z,30.13
2018-11-11T05:23:57.236Z,29.67
2018-11-11T05:26:25.402Z,30.47
2018-11-11T05:28:53.553Z,29.27
2018-11-11T05:31:21.709Z,30.97
2018-11-11T05:33:49.871Z,29.87
2018-11-11T05:36:18.018Z,28.97
2018-11-11T05:38:46.192Z,30.83
2018-11-11T05:41:14.405Z,30.37
2018-11-11T05:43:42.589Z,30.43
2018-11-11T05:46:10.747Z,31.17
2018-11-11T05:48:38.885Z,29.97
2018-11-11T05:51:07.041Z,29.83
2018-11-11T05:53:35.234Z,29.43
2018-11-11T05:56:03.419Z,29.87
2018-11-11T05:58:31.580Z,28.60
2018-11-11T06:00:59.754Z,27.90
2018-11-11T06:03:27.920Z,27.30
2018-11-11T06:05:56.085Z,27.23
2018-11-11T06:08:24.225Z,29.13
2018-11-11T06:10:52.393Z,27.70
2018-11-11T06:13:20.533Z,29.03
2018-11-11T06:15:48.685Z,30.53
2018-11-11T06:18:16.863Z,30.83
2018-11-11T06:20:45.084Z,29.97
2018-11-11T06:23:13.246Z,29.83
2018-11-11T06:25:41.393Z,30.20
2018-11-11T06:28:09.559Z,30.37
2018-11-11T06:30:37.726Z,28.70
2018-11-11T06:33:05.950Z,30.60
2018-11-11T06:35:34.125Z,31.00
2018-11-11T06:38:02.270Z,30.17
2018-11-11T06:40:30.441Z,29.43
2018-11-11T06:42:58.605Z,30.23
2018-11-11T06:45:26.776Z,30.80
2018-11-11T06:47:54.987Z,29.83
2018-11-11T06:50:23.142Z,30.10
2018-11-11T06:52:51.577Z,29.67
2018-11-11T06:55:19.827Z,29.63
2018-11-11T06:57:48.028Z,30.10
2018-11-11T07:00:16.717Z,28.77
2018-11-11T07:02:56.282Z,28.83
2018-11-11T07:05:24.438Z,30.27
2018-11-11T07:07:52.587Z,30.73
2018-11-11T07:10:20.764Z,30.43
2018-11-11T07:12:48.925Z,30.43
2018-11-11T07:15:17.090Z,31.23
2018-11-11T07:17:45.234Z,32.50
2018-11-11T07:20:13.494Z,31.57
2018-11-11T07:22:41.667Z,31.10
2018-11-11T07:25:09.836Z,32.47
2018-11-11T07:27:38.470Z,32.23
2018-11-11T07:30:06.694Z,33.50
2018-11-11T07:32:34.828Z,32.93
2018-11-11T07:35:03.017Z,31.63
2018-11-11T07:37:31.173Z,33.93
2018-11-11T07:39:59.337Z,33.77
2018-11-11T07:42:27.594Z,34.03
2018-11-11T07:44:55.734Z,33.80
2018-11-11T07:47:23.894Z,34.07
2018-11-11T07:49:52.069Z,35.77
2018-11-11T07:52:20.233Z,35.20
2018-11-11T07:54:48.399Z,34.70
2018-11-11T07:57:16.585Z,35.40
2018-11-11T07:59:44.739Z,34.43
2018-11-11T08:02:12.961Z,34.53
2018-11-11T08:04:41.219Z,34.33
2018-11-11T08:07:09.406Z,33.50
2018-11-11T08:09:37.666Z,33.13
2018-11-11T08:12:06.801Z,33.87
2018-11-11T08:14:34.974Z,35.30
2018-11-11T08:17:03.133Z,33.30
2018-11-11T08:19:31.295Z,33.90
2018-11-11T08:21:59.443Z,33.40
2018-11-11T08:24:27.610Z,32.97
2018-11-11T08:26:55.762Z,32.57
2018-11-11T08:29:23.968Z,31.70
2018-11-11T08:31:52.118Z,29.87
2018-11-11T08:34:20.335Z,29.57
2018-11-11T08:36:48.607Z,27.90
2018-11-11T08:39:17.664Z,27.93
2018-11-11T08:41:46.579Z,26.50
2018-11-11T08:44:14.853Z,24.73
2018-11-11T08:46:44.632Z,24.33
2018-11-11T08:49:13.831Z,23.37
2018-11-11T08:51:42.617Z,23.27
2018-11-11T08:54:10.823Z,22.00
2018-11-11T08:56:39.016Z,22.77
2018-11-11T08:59:07.186Z,20.83
2018-11-11T09:01:35.338Z,21.40
2018-11-11T09:04:03.610Z,21.97
2018-11-11T09:06:31.918Z,27.00
2018-11-11T09:09:00.065Z,24.70
2018-11-11T09:11:28.290Z,23.53
2018-11-11T09:13:56.438Z,22.93
2018-11-11T09:16:24.658Z,22.63
2018-11-11T09:18:52.897Z,23.03
2018-11-11T09:21:21.086Z,22.20
2018-11-11T09:23:49.262Z,22.60
2018-11-11T09:26:17.403Z,22.37
2018-11-11T09:28:45.585Z,21.97
2018-11-11T09:31:13.749Z,21.80
2018-11-11T09:33:41.906Z,22.03
2018-11-11T09:36:10.618Z,20.53
2018-11-11T09:38:38.827Z,22.17
2018-11-11T09:41:07.783Z,20.23
2018-11-11T09:43:36.781Z,21.27
2018-11-11T09:46:05.053Z,21.23
2018-11-11T09:48:33.237Z,21.47
2018-11-11T09:51:01.534Z,20.80
2018-11-11T09:53:29.686Z,21.40
2018-11-11T09:55:57.841Z,21.33
2018-11-11T09:58:26.002Z,22.47
2018-11-11T10:00:54.175Z,21.60
2018-11-11T10:03:29.543Z,21.60
2018-11-11T10:06:01.499Z,21.00
2018-11-11T10:09:03.393Z,20.37
2018-11-11T10:12:34.557Z,21.20
2018-11-11T10:15:09.029Z,20.73
2018-11-11T10:17:41.622Z,20.37
2018-11-11T10:20:19.294Z,20.27
2018-11-11T10:22:54.458Z,20.37
2018-11-11T10:25:27.009Z,19.50
2018-11-11T10:28:05.849Z,20.07
2018-11-11T10:30:49.371Z,19.83
2018-11-11T10:33:25.249Z,19.83
2018-11-11T10:35:57.087Z,19.50
2018-11-11T10:38:28.745Z,19.63
2018-11-11T10:41:02.294Z,19.13
2018-11-11T10:43:41.893Z,18.67
2018-11-11T10:46:14.457Z,19.23
2018-11-11T10:48:48.272Z,18.07
2018-11-11T10:51:16.420Z,18.33
2018-11-11T10:53:44.621Z,19.30
2018-11-11T10:56:12.795Z,17.80
2018-11-11T10:58:40.965Z,17.37
2018-11-11T11:01:14.574Z,18.30
2018-11-11T11:03:42.742Z,18.27
2018-11-11T11:06:10.939Z,18.23
2018-11-11T11:08:43.358Z,17.67
2018-11-11T11:11:11.638Z,18.33
2018-11-11T11:13:39.855Z,19.00
2018-11-11T11:16:08.337Z,18.90
2018-11-11T11:18:36.530Z,17.80
2018-11-11T11:21:05.825Z,17.47
2018-11-11T11:23:34.231Z,19.43
2018-11-11T11:26:02.538Z,17.90
2018-11-11T11:28:31.408Z,18.43
2018-11-11T11:30:59.674Z,18.20
2018-11-11T11:33:27.839Z,17.57
2018-11-11T11:35:56.058Z,17.87
2018-11-11T11:38:24.369Z,17.97
2018-11-11T11:40:52.785Z,17.70
2018-11-11T11:43:21.049Z,18.27
2018-11-11T11:45:49.297Z,18.77
2018-11-11T11:48:17.466Z,18.23
2018-11-11T11:50:45.630Z,16.83
2018-11-11T11:53:13.822Z,17.03
2018-11-11T11:55:42.038Z,16.70
2018-11-11T11:58:16.614Z,16.20
2018-11-11T12:00:45.001Z,15.80
2018-11-11T12:03:13.522Z,15.90
2018-11-11T12:05:41.763Z,16.60
2018-11-11T12:08:09.921Z,16.03
2018-11-11T12:10:38.123Z,17.57
2018-11-11T12:13:07.643Z,17.80
2018-11-11T12:15:35.806Z,16.30
2018-11-11T12:18:03.982Z,15.97
2018-11-11T12:20:32.152Z,16.03
2018-11-11T12:23:00.428Z,15.37
2018-11-11T12:25:28.581Z,15.70
2018-11-11T12:27:57.805Z,15.30
2018-11-11T12:30:26.236Z,15.47
2018-11-11T12:32:54.418Z,14.63
2018-11-11T12:35:22.584Z,15.53
2018-11-11T12:37:50.750Z,14.63
2018-11-11T12:40:19.085Z,15.43
2018-11-11T12:42:47.133Z,15.87
2018-11-11T12:45:15.294Z,14.07
2018-11-11T12:47:43.445Z,14.30
2018-11-11T12:50:12.874Z,15.03
2018-11-11T12:52:41.051Z,14.00
2018-11-11T12:55:09.350Z,13.80
2018-11-11T12:57:37.756Z,13.80
2018-11-11T13:00:08.986Z,14.30
2018-11-11T13:02:37.241Z,13.53
2018-11-11T13:05:07.186Z,13.77
2018-11-11T13:07:35.710Z,14.07
2018-11-11T13:10:06.154Z,14.43
2018-11-11T13:12:34.623Z,14.57
2018-11-11T13:15:02.854Z,14.97
2018-11-11T13:17:31.061Z,14.73
2018-11-11T13:19:59.678Z,14.07
2018-11-11T13:22:27.836Z,14.73
2018-11-11T13:24:56.551Z,14.13
2018-11-11T13:27:24.799Z,14.77
2018-11-11T13:29:53.456Z,14.03
2018-11-11T13:32:21.634Z,14.53
2018-11-11T13:34:49.794Z,14.30
2018-11-11T13:37:20.104Z,14.63
2018-11-11T13:39:49.439Z,16.00
2018-11-11T13:42:18.384Z,15.77
2018-11-11T13:44:46.639Z,15.97
2018-11-11T13:47:16.851Z,17.30
2018-11-11T13:49:45.251Z,16.07
2018-11-11T13:52:14.524Z,18.03
2018-11-11T13:54:42.713Z,17.87
2018-11-11T13:57:10.940Z,17.70
2018-11-11T13:59:39.133Z,17.40
2018-11-11T14:02:07.294Z,17.50
2018-11-11T14:04:35.482Z,18.50
2018-11-11T14:07:04.317Z,17.63
2018-11-11T14:09:32.521Z,17.37
2018-11-11T14:12:00.683Z,17.30
2018-11-11T14:14:28.869Z,17.47
2018-11-11T14:16:57.137Z,17.23
2018-11-11T14:19:25.424Z,16.70
2018-11-11T14:21:53.570Z,17.30
2018-11-11T14:24:21.761Z,17.53
2018-11-11T14:26:49.995Z,16.90
2018-11-11T14:29:18.206Z,17.00
2018-11-11T14:31:46.428Z,16.80
2018-11-11T14:34:14.582Z,16.67
2018-11-11T14:36:42.755Z,16.60
2018-11-11T14:39:12.773Z,17.10
2018-11-11T14:41:41.566Z,16.77
2018-11-11T14:44:10.005Z,16.37
2018-11-11T14:46:38.733Z,16.33
2018-11-11T14:49:07.339Z,16.37
2018-11-11T14:51:35.497Z,15.77
2018-11-11T14:54:03.965Z,16.77
2018-11-11T14:56:32.141Z,17.30
2018-11-11T14:59:00.597Z,16.97
2018-11-11T15:01:28.851Z,17.00
2018-11-11T15:03:57.027Z,16.43
2018-11-11T15:06:25.187Z,17.27
2018-11-11T15:08:53.369Z,17.33
2018-11-11T15:11:21.543Z,16.90
2018-11-11T15:13:49.714Z,17.67
2018-11-11T15:16:17.953Z,17.27
2018-11-11T15:18:46.125Z,16.77
2018-11-11T15:21:14.310Z,16.13
2018-11-11T15:23:42.466Z,13.10
2018-11-11T15:26:10.661Z,12.27
2018-11-11T15:28:38.819Z,13.23
2018-11-11T15:31:07.245Z,11.90
2018-11-11T15:33:41.859Z,13.97
2018-11-11T15:36:10.033Z,12.23
2018-11-11T15:38:38.190Z,13.00
2018-11-11T15:41:06.462Z,12.57
2018-11-11T15:43:34.585Z,12.43
2018-11-11T15:46:02.747Z,12.37
2018-11-11T15:48:31.045Z,13.80
2018-11-11T15:50:59.174Z,14.03
2018-11-11T15:53:27.335Z,13.80
2018-11-11T15:55:55.555Z,12.43
2018-11-11T15:58:23.719Z,14.10
2018-11-11T16:00:51.942Z,14.43
2018-11-11T16:03:20.133Z,14.07
2018-11-11T16:05:48.306Z,14.33
2018-11-11T16:08:16.515Z,13.73
2018-11-11T16:10:44.771Z,13.30
2018-11-11T16:13:13.029Z,13.23
2018-11-11T16:15:41.758Z,13.87
2018-11-11T16:18:11.174Z,13.43
2018-11-11T16:20:39.358Z,12.87
2018-11-11T16:23:08.234Z,13.70
2018-11-11T16:25:37.124Z,13.93
2018-11-11T16:28:05.548Z,15.07
2018-11-11T16:30:34.995Z,15.13
2018-11-11T16:33:03.533Z,14.33
2018-11-11T16:35:32.258Z,16.70
2018-11-11T16:38:00.964Z,17.57
2018-11-11T16:40:31.433Z,17.47
2018-11-11T16:42:59.749Z,18.27
2018-11-11T16:45:29.149Z,18.73
2018-11-11T16:47:57.364Z,19.00
2018-11-11T16:50:27.581Z,19.10
2018-11-11T16:52:57.110Z,19.07
2018-11-11T16:55:26.515Z,19.67
2018-11-11T16:57:54.746Z,20.43
2018-11-11T17:00:31.290Z,20.93
2018-11-11T17:03:00.685Z,20.27
2018-11-11T17:05:30.208Z,21.13
2018-11-11T17:07:58.402Z,21.80
2018-11-11T17:10:27.909Z,22.90
2018-11-11T17:12:57.086Z,23.20
2018-11-11T17:15:27.392Z,24.27
2018-11-11T17:17:55.560Z,23.27
2018-11-11T17:20:24.491Z,24.87
2018-11-11T17:22:53.438Z,24.80
2018-11-11T17:25:22.564Z,25.07
2018-11-11T17:27:50.740Z,25.13
2018-11-11T17:30:20.251Z,26.70
2018-11-11T17:32:49.343Z,25.90
2018-11-11T17:35:17.514Z,27.43
2018-11-11T17:37:45.930Z,26.87
2018-11-11T17:40:23.308Z,26.17
2018-11-11T17:42:52.323Z,25.10
2018-11-11T17:45:20.661Z,24.10
2018-11-11T17:47:51.061Z,27.07
2018-11-11T17:50:28.970Z,24.80
2018-11-11T17:52:57.921Z,25.30
2018-11-11T17:55:26.893Z,26.43
2018-11-11T17:57:55.064Z,25.67
2018-11-11T18:00:24.300Z,28.20
2018-11-11T18:02:52.918Z,27.03
2018-11-11T18:05:22.081Z,26.53
2018-11-11T18:07:50.521Z,25.57
2018-11-11T18:10:20.108Z,27.17
2018-11-11T18:12:48.490Z,27.17
2018-11-11T18:15:18.153Z,26.93
2018-11-11T18:17:46.426Z,25.90
2018-11-11T18:20:16.317Z,29.30
2018-11-11T18:22:44.780Z,28.57
2018-11-11T18:25:13.102Z,27.03
2018-11-11T18:27:41.351Z,27.47
2018-11-11T18:30:12.000Z,27.00
2018-11-11T18:32:40.262Z,26.60
2018-11-11T18:35:10.928Z,27.83
2018-11-11T18:37:39.200Z,27.17
2018-11-11T18:40:08.405Z,28.03
2018-11-11T18:42:36.789Z,27.90
2018-11-11T18:45:06.477Z,27.57
2018-11-11T18:47:34.779Z,27.97
2018-11-11T18:50:03.232Z,28.43
2018-11-11T18:52:31.526Z,28.47
2018-11-11T18:54:59.699Z,28.70
2018-11-11T18:57:27.891Z,30.20
2018-11-11T18:59:56.039Z,35.87
2018-11-11T19:02:24.361Z,29.93
2018-11-11T19:04:52.548Z,28.13
2018-11-11T19:07:20.725Z,29.90
2018-11-11T19:09:48.947Z,28.37
2018-11-11T19:12:17.089Z,29.40
2018-11-11T19:14:45.779Z,27.43
2018-11-11T19:17:13.990Z,28.30
2018-11-11T19:19:42.188Z,28.43
2018-11-11T19:22:10.354Z,30.07
2018-11-11T19:24:38.691Z,29.03
2018-11-11T19:27:06.726Z,30.60
2018-11-11T19:29:34.865Z,29.77
2018-11-11T19:32:03.042Z,31.37
2018-11-11T19:34:31.224Z,29.53
2018-11-11T19:36:59.397Z,30.23
2018-11-11T19:39:27.599Z,30.43
2018-11-11T19:41:55.837Z,31.43
2018-11-11T19:44:23.921Z,30.43
2018-11-11T19:46:52.103Z,29.60
2018-11-11T19:49:20.262Z,30.13
2018-11-11T19:51:48.422Z,28.80
2018-11-11T19:54:16.558Z,31.33
2018-11-11T19:56:44.802Z,29.57
2018-11-11T19:59:12.920Z,32.83
2018-11-11T20:01:41.122Z,32.77
2018-11-11T20:04:09.420Z,31.93
2018-11-11T20:06:37.592Z,31.13
2018-11-11T20:09:09.020Z,30.07
2018-11-11T20:11:37.292Z,31.00
2018-11-11T20:14:05.703Z,30.10
2018-11-11T20:16:33.855Z,31.67
2018-11-11T20:19:02.050Z,29.73
2018-11-11T20:21:30.306Z,29.67
2018-11-11T20:23:58.599Z,31.37
2018-11-11T20:26:26.677Z,30.70
2018-11-11T20:28:54.827Z,31.07
2018-11-11T20:31:23.214Z,31.03
2018-11-11T20:33:51.390Z,29.07
2018-11-11T20:36:19.842Z,30.20
2018-11-11T20:38:48.017Z,30.40
2018-11-11T20:41:16.156Z,30.37
2018-11-11T20:43:44.406Z,30.97
2018-11-11T20:46:12.686Z,29.20
2018-11-11T20:48:40.824Z,30.43
2018-11-11T20:51:09.029Z,30.70
2018-11-11T20:53:37.202Z,29.33
2018-11-11T20:56:05.437Z,28.43
2018-11-11T20:58:33.670Z,30.30
2018-11-11T21:01:01.832Z,28.70
2018-11-11T21:03:30.025Z,30.30
2018-11-11T21:05:58.193Z,29.00
2018-11-11T21:08:26.355Z,28.20
2018-11-11T21:10:54.537Z,27.60
2018-11-11T21:13:22.714Z,28.40
2018-11-11T21:15:50.883Z,28.80
2018-11-11T21:18:19.116Z,27.30
2018-11-11T21:20:47.296Z,27.93
2018-11-11T21:23:15.469Z,28.63
2018-11-11T21:25:43.644Z,27.30
2018-11-11T21:28:11.835Z,28.03
2018-11-11T21:30:39.998Z,28.27
2018-11-11T21:33:08.172Z,28.23
2018-11-11T21:35:36.342Z,27.73
2018-11-11T21:38:04.728Z,28.30
2018-11-11T21:40:32.866Z,28.30
2018-11-11T21:43:01.047Z,28.27
2018-11-11T21:45:29.585Z,26.50
2018-11-11T21:47:58.021Z,28.40
2018-11-11T21:50:27.160Z,26.07
2018-11-11T21:53:06.484Z,27.70
2018-11-11T21:55:34.645Z,29.07
2018-11-11T21:58:02.806Z,27.57
